Latest Weather Observations for Moorabbin Airport

IDV60801

Issued at 5:05 am EDT Tuesday 25 November 2014 (issued every 30 minutes, with the page automatically refreshed every 10 minutes)

About weather observations | Map of weather stations | Latest weather observations for VIC | Other Formats
Station Details ID: 086077 Name: MOORABBIN AIRPORT Lat: -37.98 Lon: 145.10 Height: 12.1 m
Data from the previous 72 hours. | See also: Recent months at Moorabbin Airport
Date/Time
EDT
Temp
°C
App
Temp
°C
Dew
Point
Rel
Hum
%
Delta-T
°C
Wind Press
QNH
hPa
Press
MSL
hPa
Rain
since 9 am
mm
Dir
 
Spd
km/h
Gust
km/h
Spd
kts
Gust
kts
25/05:00am 12.1 7.9 7.6 74 2.2 WNW 19 30 10 16 1014.7 1014.7 14.2
25/04:30am 12.4 8.1 7.7 73 2.3 W 20 37 11 20 1014.4 1014.4 14.2
25/04:00am 12.4 8.0 7.5 72 2.4 W 20 32 11 17 1014.3 1014.3 14.2
25/03:30am 12.6 8.1 7.1 69 2.7 W 20 35 11 19 1014.4 1014.4 14.2
25/03:00am 12.8 9.0 7.5 70 2.6 W 17 30 9 16 1014.3 1014.3 14.2
25/02:30am 12.9 8.8 7.8 71 2.5 W 19 30 10 16 1014.3 1014.3 14.2
25/02:00am 13.0 9.2 7.5 69 2.7 W 17 26 9 14 1014.3 1014.3 14.2
25/01:30am 13.0 9.3 7.9 71 2.5 W 17 26 9 14 1014.1 1014.1 14.2
25/01:00am 13.5 9.3 7.5 67 2.9 W 19 30 10 16 1014.1 1014.1 14.2
25/12:30am 13.9 9.2 7.7 66 3.1 W 22 35 12 19 1014.0 1014.0 14.2
25/12:00am 14.2 8.9 7.0 62 3.5 WSW 24 39 13 21 1013.8 1013.8 14.2
 
Date/Time
EDT
Temp
°C
App
Temp
°C
Dew
Point
Rel
Hum
%
Delta-T
°C
Wind Press
QNH
hPa
Press
MSL
hPa
Rain
since 9 am
mm
Dir
 
Spd
km/h
Gust
km/h
Spd
kts
Gust
kts
24/11:30pm 14.5 8.9 7.1 61 3.6 WSW 26 37 14 20 1013.5 1013.5 14.2
24/11:00pm 14.7 9.1 7.0 60 3.8 W 26 39 14 21 1013.4 1013.4 14.2
24/10:30pm 14.7 10.7 8.4 66 3.2 WSW 19 28 10 15 1013.3 1013.3 14.2
24/10:00pm 14.7 10.3 8.9 68 2.9 W 22 35 12 19 1013.1 1013.1 14.2
24/09:30pm 14.7 11.6 10.3 75 2.3 W 17 26 9 14 1012.7 1012.7 14.2
24/09:00pm 14.5 11.6 10.9 79 1.9 W 17 24 9 13 1012.3 1012.3 14.2
24/08:30pm 14.7 9.8 10.1 74 2.4 SW 26 37 14 20 1011.8 1011.8 14.2
24/08:00pm 14.3 9.1 10.1 76 2.2 SW 28 43 15 23 1011.6 1011.6 14.2
24/07:40pm 14.3 9.2 10.7 79 1.9 SW 28 46 15 25 1011.1 1011.1 14.2
24/07:30pm 14.3 8.7 11.6 84 1.4 SW 32 44 17 24 1010.9 1010.9 14.2
24/07:00pm 15.1 9.2 12.4 84 1.5 SW 35 52 19 28 1010.0 1010.0 14.0
24/06:40pm 15.7 10.4 12.5 81 1.8 SSW 32 52 17 28 1009.1 1009.1 14.0
24/06:30pm 15.8 10.6 12.7 82 1.7 SSW 32 46 17 25 1008.9 1008.9 14.0
24/06:00pm 16.9 13.9 12.6 76 2.4 SW 20 32 11 17 1008.1 1008.1 14.0
24/05:30pm 17.3 13.9 12.6 74 2.6 SW 22 33 12 18 1007.3 1007.3 14.0
24/05:16pm 17.2 16.4 15.0 87 1.3 WSW 13 20 7 11 1007.0 1007.0 14.0
24/05:00pm 17.2 15.2 15.0 87 1.3 WSW 19 24 10 13 1006.9 1006.9 14.0
24/04:48pm 17.2 15.2 15.0 87 1.3 WSW 19 26 10 14 1006.8 1006.8 14.0
24/04:36pm 17.1 14.6 15.1 88 1.2 WSW 22 35 12 19 1006.5 1006.5 14.0
24/04:30pm 17.0 14.1 15.2 89 1.0 W 24 35 13 19 1006.6 1006.6 14.0
24/04:00pm 17.5 16.5 16.7 95 0.5 WSW 17 26 9 14 1006.3 1006.3 14.0
24/03:59pm 17.7 17.2 16.9 95 0.5 WSW 15 26 8 14 1006.4 1006.4 14.0
24/03:30pm 18.0 18.3 16.9 93 0.7 W 11 17 6 9 1006.3 1006.3 13.0
24/03:00pm 17.3 16.1 16.2 93 0.7 SW 17 28 9 15 1006.2 1006.2 12.6
24/02:30pm 18.0 16.5 16.7 92 0.8 SW 20 30 11 16 1006.2 1006.2 12.4
24/02:00pm 19.0 20.2 16.8 87 1.3 SSE 6 9 3 5 1005.8 1005.8 12.4
24/01:31pm 18.0 16.9 17.4 96 0.4 ENE 19 24 10 13 1006.1 1006.1 12.4
24/01:30pm 17.6 16.4 17.0 96 0.4 ENE 19 24 10 13 1006.1 1006.1 12.4
24/01:12pm 17.2 15.6 16.4 95 0.5 ENE 20 24 11 13 1006.2 1006.2 12.2
24/01:00pm 17.3 17.5 16.7 96 0.4 ESE 11 15 6 8 1007.5 1007.5 11.2
24/12:48pm 17.3 17.6 17.0 98 0.2 E 11 17 6 9 1007.7 1007.7 11.2
24/12:32pm 17.0 16.4 16.7 98 0.2 E 15 20 8 11 1008.0 1008.0 11.0
24/12:30pm 17.3 16.7 16.6 96 0.4 E 15 20 8 11 1007.9 1007.9 11.0
24/12:21pm 17.3 18.3 16.8 97 0.3 SSE 7 13 4 7 1008.6 1008.6 10.2
24/12:00pm 17.4 19.3 16.8 96 0.4 SSW 2 7 1 4 1009.8 1009.8 9.4
24/11:58am 17.7 19.8 17.1 96 0.4 SSW 2 7 1 4 1010.0 1010.0 9.2
24/11:53am 17.5 19.1 17.0 97 0.3 S 4 7 2 4 1009.3 1009.3 7.8
24/11:30am 16.9 17.3 16.4 97 0.3 S 9 17 5 9 1008.6 1008.6 7.4
24/11:08am 17.1 18.0 16.1 94 0.6 E 6 13 3 7 1009.9 1009.9 4.8
24/11:00am 17.1 17.0 16.0 93 0.6 E 11 13 6 7 1009.5 1009.5 4.2
24/10:51am 16.8 16.9 15.5 92 0.8 ESE 9 13 5 7 1009.1 1009.1 4.2
24/10:30am 17.0 17.5 15.0 88 1.2 NNW 6 7 3 4 1009.8 1009.8 3.2
24/10:21am 17.2 17.6 14.7 85 1.4 N 6 7 3 4 1009.9 1009.9 1.8
24/10:00am 17.2 17.7 15.5 90 1.0 W 7 9 4 5 1009.8 1009.8 1.0
24/09:34am 16.9 17.5 15.2 90 1.0 SSW 6 13 3 7 1009.5 1009.5 1.0
24/09:30am 16.9 16.9 15.2 90 1.0 SSW 9 19 5 10 1009.3 1009.3 1.0
24/09:18am 16.7 16.6 14.9 89 1.0 SSW 9 13 5 7 1009.1 1009.1 0.8
24/09:13am 16.7 16.6 14.9 89 1.0 SSW 9 13 5 7 1009.4 1009.4 0.4
24/09:03am 16.8 16.3 14.8 88 1.2 SSW 11 15 6 8 1009.3 1009.3 0.0
24/09:00am 16.9 16.4 14.9 88 1.2 SSW 11 15 6 8 1009.6 1009.6 0.6
24/08:30am 16.4 12.9 13.3 82 1.7 SW 24 32 13 17 1009.4 1009.4 0.0
24/08:00am 16.5 16.0 12.8 79 2.1 SSE 7 9 4 5 1007.5 1007.5 0.0
24/07:30am 15.7 16.6 12.8 83 1.6 CALM 0 6 0 3 1007.4 1007.4 0.0
24/07:00am 15.1 15.5 12.6 85 1.4 N 2 7 1 4 1007.7 1007.7 0.0
24/06:30am 14.4 14.2 11.9 85 1.3 SE 4 7 2 4 1008.2 1008.2 0.0
24/06:00am 14.5 13.8 11.5 82 1.6 NNW 6 7 3 4 1008.2 1008.2 0.0
24/05:30am 13.7 13.9 10.7 82 1.6 CALM 0 0 0 0 1008.1 1008.1 0.0
24/05:00am 13.7 13.7 9.9 78 2.0 CALM 0 0 0 0 1008.3 1008.3 0.0
24/04:30am 13.6 12.5 9.8 78 2.0 ESE 6 6 3 3 1008.4 1008.4 0.0
24/04:00am 13.9 12.6 9.9 77 2.1 ESE 7 9 4 5 1008.8 1008.8 0.0
24/03:30am 13.9 12.7 9.7 76 2.2 SSW 6 7 3 4 1009.3 1009.3 0.0
24/03:00am 14.0 13.9 9.4 74 2.4 CALM 0 0 0 0 1010.0 1010.0 0.0
24/02:30am 14.9 13.5 9.5 70 2.8 ENE 7 9 4 5 1010.1 1010.1 0.0
24/02:00am 14.5 13.4 9.9 74 2.4 E 6 7 3 4 1010.6 1010.6 0.0
24/01:30am 15.1 13.2 9.2 68 3.0 E 9 11 5 6 1011.1 1011.1 0.0
24/01:00am 15.4 13.9 9.1 66 3.2 E 7 7 4 4 1011.7 1011.7 0.0
24/12:30am 15.4 13.5 9.1 66 3.2 ESE 9 11 5 6 1012.1 1012.1 0.0
24/12:00am 15.5 13.5 8.7 64 3.5 SE 9 13 5 7 1012.6 1012.6 0.0
 
Date/Time
EDT
Temp
°C
App
Temp
°C
Dew
Point
Rel
Hum
%
Delta-T
°C
Wind Press
QNH
hPa
Press
MSL
hPa
Rain
since 9 am
mm
Dir
 
Spd
km/h
Gust
km/h
Spd
kts
Gust
kts
23/11:30pm 16.0 13.7 9.0 63 3.6 SE 11 15 6 8 1013.0 1013.0 0.0
23/11:00pm 16.2 13.9 8.9 62 3.7 ESE 11 15 6 8 1013.1 1013.1 0.0
23/10:30pm 16.6 14.8 9.3 62 3.8 S 9 13 5 7 1013.7 1013.7 0.0
23/10:00pm 16.7 14.3 10.1 65 3.5 SSE 13 20 7 11 1013.4 1013.4 0.0
23/09:30pm 16.6 14.1 9.8 64 3.6 SE 13 17 7 9 1013.1 1013.1 0.0
23/09:00pm 16.7 13.7 9.1 61 3.9 SE 15 20 8 11 1013.0 1013.0 0.0
23/08:30pm 17.2 14.0 8.6 57 4.4 SE 15 17 8 9 1013.4 1013.4 0.0
23/08:00pm 17.8 13.8 8.4 54 4.8 SE 19 24 10 13 1012.9 1012.9 0.0
23/07:30pm 18.3 15.3 9.4 56 4.7 SSE 15 20 8 11 1013.1 1013.1 0.0
23/07:00pm 18.7 14.8 9.5 55 4.9 SE 20 26 11 14 1012.9 1012.9 0.0
23/06:30pm 19.3 14.7 9.8 54 5.1 SE 24 30 13 16 1012.6 1012.6 0.0
23/06:00pm 20.2 15.9 10.9 55 5.1 SE 24 30 13 16 1012.4 1012.4 0.0
23/05:30pm 21.1 16.9 11.2 53 5.5 SE 24 30 13 16 1012.0 1012.0 0.0
23/05:00pm 22.9 19.6 11.6 49 6.3 SSE 20 24 11 13 1011.6 1011.6 0.0
23/04:30pm 23.9 21.1 12.5 49 6.5 S 19 24 10 13 1011.4 1011.4 0.0
23/04:00pm 22.6 18.6 13.1 55 5.5 S 26 35 14 19 1010.9 1010.9 0.0
23/03:30pm 22.7 19.1 13.2 55 5.5 SSW 24 35 13 19 1010.8 1010.8 0.0
23/03:00pm 22.4 19.0 13.7 58 5.1 SSW 24 32 13 17 1010.7 1010.7 0.0
23/02:30pm 22.1 19.0 13.5 58 5.0 SSW 22 30 12 16 1010.6 1010.6 0.0
23/02:00pm 22.6 20.0 13.9 58 5.1 SSW 20 28 11 15 1010.7 1010.7 0.0
23/01:30pm 21.0 18.1 12.9 60 4.6 SW 20 26 11 14 1011.1 1011.1 0.0
23/01:00pm 20.6 17.5 12.3 59 4.7 SW 20 24 11 13 1011.3 1011.3 0.0
23/12:30pm 20.7 18.4 12.9 61 4.4 SSW 17 20 9 11 1011.5 1011.5 0.0
23/12:00pm 20.2 18.4 13.2 64 4.0 SW 15 20 8 11 1011.6 1011.6 0.0
23/11:30am 20.3 18.6 13.7 66 3.8 SW 15 22 8 12 1011.9 1011.9 0.0
23/11:00am 19.4 18.1 13.6 69 3.3 SW 13 20 7 11 1012.1 1012.1 0.0
23/10:30am 18.9 17.5 13.5 71 3.1 SSW 13 19 7 10 1012.4 1012.4 0.0
23/10:00am 18.6 17.4 13.9 74 2.7 SW 13 17 7 9 1012.6 1012.6 0.0
23/09:30am 18.4 17.2 13.9 75 2.6 SW 13 20 7 11 1012.6 1012.6 0.0
23/09:00am 18.4 17.6 14.1 76 2.5 SW 11 17 6 9 1012.8 1012.8 0.0
23/08:30am 17.8 16.9 13.7 77 2.3 SW 11 15 6 8 1012.5 1012.5 0.0
23/08:00am 17.9 17.3 13.4 75 2.5 SW 9 15 5 8 1012.3 1012.3 0.0
23/07:30am 17.6 17.3 12.7 73 2.7 SSW 6 7 3 4 1011.9 1011.9 0.0
23/07:00am 16.8 16.6 12.9 78 2.2 SSW 6 7 3 4 1011.8 1011.8 0.0
23/06:30am 16.6 16.6 12.4 76 2.3 SSW 4 6 2 3 1011.5 1011.5 0.0
23/06:00am 16.9 17.7 12.6 76 2.4 CALM 0 0 0 0 1011.3 1011.3 0.0
23/05:30am 17.0 16.7 12.7 76 2.4 WNW 6 7 3 4 1011.4 1011.4 0.0
23/05:00am 17.1 16.6 12.8 76 2.4 W 7 9 4 5 1011.1 1011.1 0.0
23/04:30am 17.3 16.5 13.0 76 2.4 WSW 9 13 5 7 1011.0 1011.0 0.0
23/04:00am 17.4 16.3 13.1 76 2.4 WSW 11 19 6 10 1010.5 1010.5 0.0
23/03:30am 17.3 15.8 13.0 76 2.4 WSW 13 17 7 9 1010.1 1010.1 0.0
23/03:00am 17.2 17.2 13.7 80 2.0 W 6 9 3 5 1009.9 1009.9 0.0
23/02:30am 17.3 17.0 13.4 78 2.2 W 7 11 4 6 1010.0 1010.0 0.0
23/02:00am 17.3 17.0 13.2 77 2.3 W 7 9 4 5 1009.7 1009.7 0.0
23/01:30am 17.5 17.0 12.8 74 2.6 WSW 7 13 4 7 1009.9 1009.9 0.0
23/01:00am 17.3 17.1 13.0 76 2.4 SW 6 9 3 5 1009.8 1009.8 0.0
23/12:30am 17.8 17.5 13.3 75 2.5 SW 7 11 4 6 1009.6 1009.6 0.0
23/12:00am 17.7 16.6 13.0 74 2.6 SW 11 15 6 8 1009.3 1009.3 0.0
 
Date/Time
EDT
Temp
°C
App
Temp
°C
Dew
Point
Rel
Hum
%
Delta-T
°C
Wind Press
QNH
hPa
Press
MSL
hPa
Rain
since 9 am
mm
Dir
 
Spd
km/h
Gust
km/h
Spd
kts
Gust
kts
22/11:30pm 18.1 16.6 13.2 73 2.8 SW 13 19 7 10 1009.1 1009.1 0.0
22/11:00pm 18.6 18.3 13.2 71 3.1 SW 7 13 4 7 1009.3 1009.3 0.0
22/10:30pm 19.0 16.8 13.2 69 3.3 SW 17 28 9 15 1008.5 1008.5 0.0
22/10:00pm 19.4 17.7 13.6 69 3.3 SW 15 24 8 13 1007.9 1007.9 0.0
22/09:30pm 20.7 17.1 13.2 62 4.3 SSW 24 35 13 19 1007.2 1007.2 0.0
22/09:23pm 22.5 18.0 12.7 54 5.6 SSW 28 33 15 18 1007.0 1007.0 0.0
22/09:00pm 28.2 24.2 9.0 30 10.6 NNW 20 33 11 18 1006.0 1006.0 0.0
22/08:30pm 28.6 25.0 8.3 28 11.1 NW 17 22 9 12 1005.8 1005.8 0.0
22/08:01pm 29.5 23.7 8.0 26 11.7 NNW 28 48 15 26 1005.3 1005.3 0.0
22/08:00pm 29.6 24.2 8.1 26 11.8 NNW 26 48 14 26 1005.3 1005.3 0.0
22/07:30pm 29.2 25.0 8.3 27 11.4 N 20 30 11 16 1004.9 1004.9 0.0
22/07:16pm 29.6 23.7 7.5 25 12.0 N 28 46 15 25 1004.5 1004.5 0.0
22/07:00pm 30.1 23.8 7.3 24 12.4 NNW 30 41 16 22 1004.5 1004.5 0.0
22/06:30pm 30.2 23.9 7.4 24 12.4 NNW 30 46 16 25 1005.0 1005.0 0.0
22/06:00pm 30.6 24.4 7.7 24 12.5 NNW 30 48 16 26 1004.9 1004.9 0.0
22/05:51pm 30.4 24.3 8.2 25 12.2 N 30 48 16 26 1005.0 1005.0 0.0
22/05:30pm 30.7 24.1 7.8 24 12.5 N 32 48 17 26 1004.8 1004.8 0.0
22/05:00pm 31.0 23.5 8.1 24 12.7 N 37 57 20 31 1004.9 1004.9 0.0
22/04:30pm 30.9 24.4 8.0 24 12.6 N 32 50 17 27 1005.0 1005.0 0.0
22/04:28pm 30.7 24.1 7.8 24 12.5 N 32 50 17 27 1004.9 1004.9 0.0
22/04:00pm 29.2 22.7 8.3 27 11.5 N 32 46 17 25 1005.7 1005.7 0.0
22/03:30pm 29.1 22.7 8.7 28 11.2 N 32 44 17 24 1006.6 1006.6 0.0
22/03:00pm 28.3 21.6 7.5 27 11.2 N 32 43 17 23 1007.0 1007.0 0.0
22/02:30pm 28.4 21.9 8.1 28 11.0 N 32 43 17 23 1007.0 1007.0 0.0
22/02:00pm 27.5 20.6 8.9 31 10.2 N 35 46 19 25 1007.1 1007.1 0.0
22/01:30pm 26.7 20.0 9.5 34 9.5 N 35 46 19 25 1007.6 1007.6 0.0
22/01:00pm 24.6 17.5 8.1 35 8.8 N 35 43 19 23 1007.8 1007.8 0.0
22/12:35pm 24.0 17.8 8.0 36 8.5 N 30 48 16 26 1009.0 1009.0 0.0
22/12:30pm 24.3 18.5 7.9 35 8.7 NNW 28 37 15 20 1010.0 1010.0 0.0
22/12:03pm 24.8 19.3 9.1 37 8.5 N 28 48 15 26 1010.2 1010.2 0.0
22/12:00pm 24.6 19.7 10.1 40 8.0 N 26 37 14 20 1010.2 1010.2 0.0
22/11:30am 23.2 20.1 11.6 48 6.5 N 19 24 10 13 1010.1 1010.1 0.0
22/11:00am 22.2 19.2 10.7 48 6.3 N 17 26 9 14 1010.2 1010.2 0.0
22/10:30am 21.3 18.3 10.8 51 5.8 N 17 24 9 13 1010.2 1010.2 0.0
22/10:00am 20.5 18.6 11.7 57 4.9 NNE 13 17 7 9 1010.3 1010.3 0.0
22/09:30am 18.9 19.1 12.9 68 3.4 N 4 7 2 4 1011.0 1011.0 0.0
22/09:00am 17.6 17.2 12.3 71 2.9 ENE 6 11 3 6 1011.0 1011.0 0.2
22/08:30am 15.9 15.4 12.1 78 2.1 NNE 6 9 3 5 1011.1 1011.1 0.2
22/08:00am 15.3 14.6 11.3 77 2.1 ENE 6 7 3 4 1010.8 1010.8 0.2
22/07:30am 14.6 14.0 11.6 82 1.6 SW 6 7 3 4 1010.8 1010.8 0.2
22/07:00am 13.9 13.1 11.8 87 1.1 SSW 7 9 4 5 1010.7 1010.7 0.2
22/06:30am 12.6 12.4 10.5 87 1.1 N 2 6 1 3 1010.1 1010.1 0.2
22/06:00am 12.6 11.2 10.8 89 0.9 N 9 13 5 7 1009.9 1009.9 0.2
22/05:30am 12.3 10.5 10.7 90 0.8 N 11 13 6 7 1009.9 1009.9 0.2

Other Formats:

Comma delimited format used in spreadsheet applications
http://www.bom.gov.au/fwo/IDV60801/IDV60801.94870.axf

JavaScript Object Notation format (JSON) in row-major order
http://www.bom.gov.au/fwo/IDV60801/IDV60801.94870.json